createdAt,value
2018-12-31T00:04:20.698Z,102128.59
2018-12-31T00:09:26.284Z,102121.06
2018-12-31T00:14:31.823Z,102122.83
2018-12-31T00:19:37.538Z,102119.25
2018-12-31T00:24:44.358Z,102134.38
2018-12-31T00:29:50.038Z,102128.15
2018-12-31T00:34:55.459Z,102127.20
2018-12-31T00:40:02.499Z,102126.75
2018-12-31T00:45:08.479Z,102122.80
2018-12-31T00:50:14.250Z,102129.04
2018-12-31T00:55:19.678Z,102132.62
2018-12-31T01:00:25.937Z,102132.17
2018-12-31T01:05:31.729Z,102125.52
2018-12-31T01:10:37.559Z,102123.72
2018-12-31T01:15:43.080Z,102120.16
2018-12-31T01:20:48.624Z,102117.48
2018-12-31T01:25:54.005Z,102119.28
2018-12-31T01:31:00.486Z,102110.81
2018-12-31T01:36:05.900Z,102116.59
2018-12-31T01:41:11.329Z,102114.83
2018-12-31T01:46:16.745Z,102115.25
2018-12-31T01:51:22.249Z,102119.25
2018-12-31T01:56:27.659Z,102117.05
2018-12-31T02:01:33.120Z,102121.48
2018-12-31T02:06:38.694Z,102117.92
2018-12-31T02:11:44.425Z,102118.75
2018-12-31T02:16:49.941Z,102126.77
2018-12-31T02:21:55.519Z,102111.63
2018-12-31T02:27:01.048Z,102116.09
2018-12-31T02:32:06.586Z,102107.72
2018-12-31T02:37:12.443Z,102103.24
2018-12-31T02:42:17.985Z,102106.79
2018-12-31T02:47:23.419Z,102103.67
2018-12-31T02:52:28.949Z,102100.55
2018-12-31T02:57:34.261Z,102097.41
2018-12-31T03:02:39.773Z,102100.97
2018-12-31T03:07:45.113Z,102099.23
2018-12-31T03:12:50.701Z,102103.68
2018-12-31T03:17:56.388Z,102103.71
2018-12-31T03:28:19.258Z,102102.82
2018-12-31T03:38:50.037Z,102097.03
2018-12-31T03:43:55.482Z,102098.79
2018-12-31T03:49:01.122Z,102108.15
2018-12-31T03:54:06.603Z,102109.92
2018-12-31T03:59:12.984Z,102103.70
2018-12-31T04:04:18.404Z,102096.57
2018-12-31T04:09:23.950Z,102092.59
2018-12-31T04:14:29.528Z,102089.02
2018-12-31T04:19:34.961Z,102068.12
2018-12-31T04:24:40.522Z,102079.67
2018-12-31T04:29:46.115Z,102067.66
2018-12-31T04:34:51.489Z,102062.77
2018-12-31T04:39:57.224Z,102049.42
2018-12-31T04:45:02.689Z,102052.98
2018-12-31T04:50:08.284Z,102058.79
2018-12-31T04:55:13.714Z,102049.00
2018-12-31T05:00:19.233Z,102058.72
2018-12-31T05:05:24.722Z,102055.08
2018-12-31T05:10:30.261Z,102048.40
2018-12-31T05:15:35.708Z,102048.83
2018-12-31T05:20:41.200Z,102049.69
2018-12-31T05:25:46.649Z,102049.70
2018-12-31T05:30:52.172Z,102046.55
2018-12-31T05:35:57.605Z,102049.54
2018-12-31T05:41:03.353Z,102047.50
2018-12-31T05:46:08.979Z,102042.27
2018-12-31T05:51:14.499Z,102045.45
2018-12-31T05:56:19.929Z,102048.58
2018-12-31T06:01:26.349Z,102048.52
2018-12-31T06:06:31.770Z,102048.99
2018-12-31T06:11:37.337Z,102049.89
2018-12-31T06:16:42.674Z,102056.88
2018-12-31T06:21:48.168Z,102049.26
2018-12-31T06:26:53.639Z,102055.84
2018-12-31T06:31:59.150Z,102055.34
2018-12-31T06:37:04.644Z,102061.13
2018-12-31T06:42:10.103Z,102062.83
2018-12-31T06:47:16.398Z,102065.03
2018-12-31T06:52:21.749Z,102057.00
2018-12-31T06:57:27.172Z,102064.59
2018-12-31T07:02:32.772Z,102064.16
2018-12-31T07:07:38.434Z,102056.14
2018-12-31T07:12:44.078Z,102067.28
2018-12-31T07:17:49.557Z,102070.91
2018-12-31T07:22:55.028Z,102070.91
2018-12-31T07:28:00.410Z,102075.41
2018-12-31T07:33:06.078Z,102080.27
2018-12-31T07:38:11.847Z,102081.59
2018-12-31T07:43:17.695Z,102083.47
2018-12-31T07:48:23.536Z,102095.05
2018-12-31T07:53:29.437Z,102096.78
2018-12-31T07:58:34.917Z,102098.44
2018-12-31T08:03:40.521Z,102106.13
2018-12-31T08:08:46.191Z,102102.13
2018-12-31T08:13:51.786Z,102112.42
2018-12-31T08:18:57.472Z,102109.23
2018-12-31T08:24:04.271Z,102116.39
2018-12-31T08:34:41.474Z,102118.30
2018-12-31T08:39:47.044Z,102128.13
2018-12-31T08:44:52.951Z,102121.89
2018-12-31T08:50:02.719Z,102125.34
2018-12-31T08:55:06.781Z,102117.25
2018-12-31T09:00:12.855Z,102131.42
2018-12-31T09:05:18.313Z,102124.73
2018-12-31T09:10:23.781Z,102131.00
2018-12-31T09:15:29.201Z,102139.48
2018-12-31T09:20:34.705Z,102136.43
2018-12-31T09:25:40.346Z,102141.77
2018-12-31T09:30:47.801Z,102140.44
2018-12-31T09:46:32.789Z,102136.42
2018-12-31T09:51:39.417Z,102153.75
2018-12-31T09:56:45.035Z,102152.37
2018-12-31T10:01:50.645Z,102156.39
2018-12-31T10:06:56.283Z,102159.01
2018-12-31T10:12:01.825Z,102161.68
2018-12-31T10:17:07.504Z,102166.91
2018-12-31T10:22:13.456Z,102170.00
2018-12-31T10:27:19.163Z,102163.31
2018-12-31T10:37:35.934Z,102169.02
2018-12-31T10:42:41.454Z,102168.12
2018-12-31T10:47:47.297Z,102167.80
2018-12-31T10:52:52.860Z,102173.63
2018-12-31T10:57:59.166Z,102166.84
2018-12-31T11:03:04.714Z,102170.49
2018-12-31T11:08:10.645Z,102163.41
2018-12-31T11:13:16.386Z,102166.91
2018-12-31T11:18:22.175Z,102166.78
2018-12-31T11:23:27.736Z,102159.64
2018-12-31T11:28:33.276Z,102164.92
2018-12-31T11:33:38.754Z,102150.14
2018-12-31T11:38:44.321Z,102154.08
2018-12-31T11:43:50.016Z,102156.72
2018-12-31T11:48:55.785Z,102152.31
2018-12-31T11:54:01.415Z,102154.45
2018-12-31T11:59:06.985Z,102145.08
2018-12-31T12:04:12.415Z,102137.20
2018-12-31T12:09:18.039Z,102137.58
2018-12-31T12:14:23.505Z,102135.33
2018-12-31T12:19:29.546Z,102129.22
2018-12-31T12:24:35.425Z,102120.78
2018-12-31T12:29:41.266Z,102119.02
2018-12-31T12:34:46.985Z,102112.71
2018-12-31T12:39:52.538Z,102111.84
2018-12-31T12:44:58.185Z,102105.23
2018-12-31T12:50:03.778Z,102103.89
2018-12-31T12:55:09.467Z,102095.77
2018-12-31T13:00:15.192Z,102077.96
2018-12-31T13:05:21.045Z,102070.84
2018-12-31T13:10:27.209Z,102067.75
2018-12-31T13:15:32.907Z,102066.37
2018-12-31T13:20:38.547Z,102067.64
2018-12-31T13:25:44.384Z,102062.17
2018-12-31T13:30:49.799Z,102053.29
2018-12-31T13:35:55.916Z,102058.66
2018-12-31T13:41:01.804Z,102050.69
2018-12-31T13:46:07.526Z,102049.84
2018-12-31T13:51:13.045Z,102050.27
2018-12-31T13:56:18.644Z,102053.06
2018-12-31T14:01:24.205Z,102052.75
2018-12-31T14:06:30.024Z,102044.78
2018-12-31T14:11:35.724Z,102042.42
2018-12-31T14:16:41.261Z,102042.31
2018-12-31T14:21:46.887Z,102046.66
2018-12-31T14:27:00.342Z,102044.56
2018-12-31T14:31:59.987Z,102048.57
2018-12-31T14:37:06.586Z,102044.00
2018-12-31T14:42:12.208Z,102052.55
2018-12-31T14:47:18.539Z,102046.33
2018-12-31T14:52:24.225Z,102049.53
2018-12-31T14:57:30.129Z,102045.58
2018-12-31T15:02:35.745Z,102045.10
2018-12-31T15:07:41.527Z,102052.20
2018-12-31T15:12:48.107Z,102048.93
2018-12-31T15:17:53.745Z,102051.97
2018-12-31T15:22:59.518Z,102052.02
2018-12-31T15:28:05.226Z,102047.63
2018-12-31T15:33:11.012Z,102050.07
2018-12-31T15:38:16.827Z,102048.20
2018-12-31T15:43:22.638Z,102054.03
2018-12-31T15:48:28.345Z,102055.42
2018-12-31T15:53:33.949Z,102059.36
2018-12-31T15:58:39.607Z,102060.71
2018-12-31T16:03:45.217Z,102056.38
2018-12-31T16:08:50.846Z,102055.03
2018-12-31T16:13:56.366Z,102050.98
2018-12-31T16:19:02.187Z,102046.98
2018-12-31T16:24:08.270Z,102044.73
2018-12-31T16:29:14.054Z,102047.41
2018-12-31T16:34:19.594Z,102040.72
2018-12-31T16:39:25.535Z,102045.52
2018-12-31T16:44:31.107Z,102039.70
2018-12-31T16:54:48.628Z,102039.44
2018-12-31T17:05:25.635Z,102056.02
2018-12-31T17:10:31.217Z,102053.41
2018-12-31T17:15:36.929Z,102055.22
2018-12-31T17:20:42.982Z,102063.64
2018-12-31T17:25:48.849Z,102063.56
2018-12-31T17:30:54.249Z,102052.80
2018-12-31T17:35:59.885Z,102063.38
2018-12-31T17:41:05.854Z,102062.05
2018-12-31T17:51:19.621Z,102062.47
2018-12-31T18:01:46.380Z,102068.93
2018-12-31T18:06:52.330Z,102071.60
2018-12-31T18:11:57.980Z,102060.52
2018-12-31T18:17:03.719Z,102068.96
2018-12-31T18:22:09.459Z,102070.30
2018-12-31T18:27:15.289Z,102074.34
2018-12-31T18:32:21.252Z,102067.64
2018-12-31T18:37:26.890Z,102066.78
2018-12-31T18:42:32.521Z,102075.27
2018-12-31T18:47:38.121Z,102072.09
2018-12-31T18:52:43.939Z,102069.42
2018-12-31T18:57:49.484Z,102080.07
2018-12-31T19:02:54.919Z,102090.27
2018-12-31T19:08:00.315Z,102091.59
2018-12-31T19:13:05.798Z,102103.61
2018-12-31T19:18:11.493Z,102107.66
2018-12-31T19:23:17.071Z,102103.27
2018-12-31T19:28:22.725Z,102108.16
2018-12-31T19:33:28.378Z,102109.47
2018-12-31T19:38:33.884Z,102106.38
2018-12-31T19:43:39.413Z,102113.47
2018-12-31T19:48:44.949Z,102107.18
2018-12-31T19:53:53.244Z,102104.48
2018-12-31T19:58:58.818Z,102106.72
2018-12-31T20:04:04.418Z,102108.05
2018-12-31T20:09:10.049Z,102104.91
2018-12-31T20:14:15.721Z,102114.73
2018-12-31T20:19:21.458Z,102105.84
2018-12-31T20:24:28.013Z,102118.79
2018-12-31T20:29:33.693Z,102116.14
2018-12-31T20:34:39.325Z,102121.05
2018-12-31T20:39:44.837Z,102120.12
2018-12-31T20:44:50.388Z,102112.58
2018-12-31T20:49:55.803Z,102110.77
2018-12-31T20:55:01.748Z,102107.66
2018-12-31T21:00:08.393Z,102100.16
2018-12-31T21:05:14.168Z,102111.26
2018-12-31T21:10:19.792Z,102106.36
2018-12-31T21:15:25.588Z,102104.56
2018-12-31T21:20:31.064Z,102104.13
2018-12-31T21:25:36.798Z,102090.81
2018-12-31T21:30:42.133Z,102094.77
2018-12-31T21:35:48.137Z,102097.87
2018-12-31T21:40:53.619Z,102090.83
2018-12-31T21:45:59.593Z,102089.00
2018-12-31T21:51:05.173Z,102088.16
2018-12-31T21:56:11.194Z,102094.36
2018-12-31T22:01:16.669Z,102089.48
2018-12-31T22:06:22.598Z,102083.19
2018-12-31T22:11:28.128Z,102083.19
2018-12-31T22:16:34.334Z,102088.55
2018-12-31T22:21:39.814Z,102078.33
2018-12-31T22:26:45.538Z,102081.00
2018-12-31T22:31:51.017Z,102083.25
2018-12-31T22:36:56.993Z,102084.99
2018-12-31T22:42:02.418Z,102081.89
2018-12-31T22:47:08.543Z,102081.88
2018-12-31T22:52:13.928Z,102094.81
2018-12-31T22:57:19.899Z,102089.02
2018-12-31T23:02:25.457Z,102093.92
2018-12-31T23:07:31.467Z,102095.72
2018-12-31T23:12:36.913Z,102100.52
2018-12-31T23:17:43.122Z,102099.16
2018-12-31T23:22:48.597Z,102089.46
2018-12-31T23:27:54.415Z,102092.15
2018-12-31T23:32:59.792Z,102086.77
2018-12-31T23:38:05.819Z,102092.16
2018-12-31T23:43:11.514Z,102085.02
2018-12-31T23:48:17.445Z,102086.38
2018-12-31T23:53:22.896Z,102088.13
2018-12-31T23:58:28.436Z,102091.67
